createdAt,value
2023-04-21T00:00:07.786Z,26.77
2023-04-21T00:01:42.164Z,27.73
2023-04-21T00:03:15.603Z,28.98
2023-04-21T00:04:49.773Z,28.35
2023-04-21T00:06:23.503Z,29.80
2023-04-21T00:07:56.638Z,28.05
2023-04-21T00:09:29.602Z,27.08
2023-04-21T00:11:02.639Z,31.23
2023-04-21T00:12:35.828Z,33.65
2023-04-21T00:14:07.892Z,32.50
2023-04-21T00:15:41.201Z,30.92
2023-04-21T00:18:49.010Z,38.55
2023-04-21T00:20:21.100Z,29.73
2023-04-21T00:21:58.571Z,31.58
2023-04-21T00:23:30.609Z,33.60
2023-04-21T00:25:03.619Z,32.47
2023-04-21T00:26:35.651Z,25.58
2023-04-21T00:28:08.581Z,26.73
2023-04-21T00:29:41.547Z,36.75
2023-04-21T00:31:14.564Z,27.10
2023-04-21T00:32:48.247Z,25.80
2023-04-21T00:34:21.248Z,28.17
2023-04-21T00:35:54.499Z,29.00
2023-04-21T00:37:27.568Z,27.35
2023-04-21T00:38:59.544Z,29.98
2023-04-21T00:40:32.615Z,27.67
2023-04-21T00:42:04.836Z,26.70
2023-04-21T00:43:37.755Z,25.90
2023-04-21T00:45:11.244Z,30.20
2023-04-21T00:46:44.336Z,30.17
2023-04-21T00:48:18.715Z,31.95
2023-04-21T00:49:51.150Z,28.30
2023-04-21T00:51:24.050Z,28.58
2023-04-21T00:52:57.952Z,28.42
2023-04-21T00:54:29.980Z,32.47
2023-04-21T00:56:03.071Z,27.15
2023-04-21T00:57:37.405Z,27.70
2023-04-21T00:59:10.757Z,27.38
2023-04-21T01:02:18.268Z,27.75
2023-04-21T01:03:53.267Z,26.08
2023-04-21T01:05:26.409Z,30.52
2023-04-21T01:07:00.277Z,28.52
2023-04-21T01:08:32.795Z,27.63
2023-04-21T01:10:06.698Z,28.80
2023-04-21T01:11:39.975Z,26.98
2023-04-21T01:13:13.059Z,28.63
2023-04-21T01:14:46.410Z,29.02
2023-04-21T01:17:54.169Z,30.02
2023-04-21T01:19:34.231Z,33.63
2023-04-21T01:21:08.113Z,29.92
2023-04-21T01:22:44.528Z,34.13
2023-04-21T01:24:17.590Z,36.17
2023-04-21T01:25:51.786Z,37.08
2023-04-21T01:27:26.821Z,37.88
2023-04-21T01:28:59.759Z,32.42
2023-04-21T01:30:32.743Z,29.05
2023-04-21T01:32:06.920Z,35.38
2023-04-21T01:33:39.902Z,33.85
2023-04-21T01:35:15.681Z,28.98
2023-04-21T01:36:48.667Z,27.38
2023-04-21T01:38:23.061Z,25.05
2023-04-21T01:39:57.887Z,28.60
2023-04-21T01:41:30.069Z,29.05
2023-04-21T01:43:03.913Z,28.10
2023-04-21T01:44:37.383Z,29.10
2023-04-21T01:46:10.564Z,29.52
2023-04-21T01:47:43.702Z,26.67
2023-04-21T01:49:16.654Z,27.17
2023-04-21T01:50:49.668Z,28.85
2023-04-21T01:52:22.858Z,28.58
2023-04-21T01:53:57.069Z,28.33
2023-04-21T01:55:30.660Z,31.73
2023-04-21T01:57:03.138Z,28.23
2023-04-21T01:58:36.063Z,31.88
2023-04-21T02:00:09.320Z,28.52
2023-04-21T02:01:42.306Z,28.70
2023-04-21T02:03:15.379Z,30.75
2023-04-21T02:04:48.388Z,29.33
2023-04-21T02:06:20.501Z,27.52
2023-04-21T02:07:53.486Z,30.70
2023-04-21T02:09:26.841Z,33.30
2023-04-21T02:11:02.224Z,29.58
2023-04-21T02:12:34.306Z,30.30
2023-04-21T02:14:07.267Z,34.85
2023-04-21T02:15:40.280Z,31.85
2023-04-21T02:17:13.533Z,31.30
2023-04-21T02:18:46.967Z,29.17
2023-04-21T02:20:20.121Z,29.65
2023-04-21T02:21:53.306Z,28.73
2023-04-21T02:23:26.524Z,32.75
2023-04-21T02:25:00.865Z,32.25
2023-04-21T02:26:33.839Z,29.58
2023-04-21T02:28:08.563Z,29.05
2023-04-21T02:29:41.745Z,33.70
2023-04-21T02:31:13.971Z,31.45
2023-04-21T02:32:47.037Z,31.00
2023-04-21T02:34:19.105Z,30.67
2023-04-21T02:35:52.043Z,30.95
2023-04-21T02:37:25.459Z,31.35
2023-04-21T02:40:32.762Z,29.65
2023-04-21T02:42:06.115Z,29.50
2023-04-21T02:45:12.770Z,31.55
2023-04-21T02:46:45.021Z,36.88
2023-04-21T02:48:22.842Z,34.13
2023-04-21T02:49:55.869Z,35.38
2023-04-21T02:51:28.325Z,33.92
2023-04-21T02:53:01.377Z,36.53
2023-04-21T02:54:34.269Z,32.53
2023-04-21T02:56:09.450Z,33.03
2023-04-21T02:57:42.728Z,29.92
2023-04-21T02:59:16.935Z,30.95
2023-04-21T03:00:50.374Z,34.30
2023-04-21T03:03:56.686Z,29.17
2023-04-21T03:05:29.964Z,33.00
2023-04-21T03:07:03.367Z,31.58
2023-04-21T03:10:09.005Z,30.58
2023-04-21T03:11:43.806Z,29.73
2023-04-21T03:13:16.435Z,30.77
2023-04-21T03:14:49.798Z,30.50
2023-04-21T03:17:56.262Z,31.73
2023-04-21T03:19:30.375Z,31.88
2023-04-21T03:21:03.675Z,30.27
2023-04-21T03:22:36.068Z,32.90
2023-04-21T03:24:10.682Z,31.43
2023-04-21T03:25:46.099Z,33.17
2023-04-21T03:27:20.799Z,31.23
2023-04-21T03:28:54.146Z,34.38
2023-04-21T03:32:00.343Z,31.25
2023-04-21T03:33:33.725Z,29.92
2023-04-21T03:35:06.448Z,33.00
2023-04-21T03:36:39.774Z,31.13
2023-04-21T03:38:12.855Z,35.38
2023-04-21T03:39:45.950Z,34.38
2023-04-21T03:41:19.258Z,30.08
2023-04-21T03:44:27.801Z,33.67
2023-04-21T03:46:01.169Z,35.35
2023-04-21T03:49:06.516Z,36.55
2023-04-21T03:50:40.015Z,40.95
2023-04-21T03:52:13.297Z,35.65
2023-04-21T03:53:45.373Z,36.15
2023-04-21T03:55:18.822Z,32.78
2023-04-21T03:56:51.939Z,37.35
2023-04-21T03:58:26.948Z,31.42
2023-04-21T03:59:59.083Z,28.77
2023-04-21T04:01:32.254Z,29.25
2023-04-21T04:03:05.918Z,31.60
2023-04-21T04:04:39.279Z,27.70
2023-04-21T04:07:44.048Z,28.73
2023-04-21T04:09:17.228Z,32.33
2023-04-21T04:12:23.048Z,37.80
2023-04-21T04:13:56.319Z,37.75
2023-04-21T04:15:29.268Z,51.70
2023-04-21T04:17:02.304Z,57.00
2023-04-21T04:18:35.486Z,48.92
2023-04-21T04:20:10.844Z,42.78
2023-04-21T04:21:43.848Z,37.90
2023-04-21T04:23:16.069Z,32.42
2023-04-21T04:24:49.032Z,34.55
2023-04-21T04:26:24.819Z,37.33
2023-04-21T04:27:57.822Z,36.92
2023-04-21T04:29:35.205Z,32.67
2023-04-21T04:31:08.359Z,34.10
2023-04-21T04:32:41.738Z,30.33
2023-04-21T04:34:15.688Z,31.17
2023-04-21T04:35:51.146Z,32.40
2023-04-21T04:37:25.312Z,33.20
2023-04-21T04:38:58.470Z,32.63
2023-04-21T04:40:33.253Z,33.70
2023-04-21T04:42:08.942Z,33.63
2023-04-21T04:43:41.864Z,34.47
2023-04-21T04:45:16.703Z,32.95
2023-04-21T04:46:49.759Z,31.63
2023-04-21T04:48:22.764Z,33.75
2023-04-21T04:49:55.655Z,32.80
2023-04-21T04:51:28.824Z,33.70
2023-04-21T04:53:01.761Z,33.95
2023-04-21T04:54:34.640Z,32.15
2023-04-21T04:56:08.976Z,29.45
2023-04-21T04:57:41.954Z,34.00
2023-04-21T04:59:16.136Z,30.77
2023-04-21T05:00:50.398Z,30.92
2023-04-21T05:02:24.325Z,35.55
2023-04-21T05:03:58.077Z,32.50
2023-04-21T05:05:31.252Z,36.00
2023-04-21T05:07:06.062Z,33.90
2023-04-21T05:08:40.127Z,39.28
2023-04-21T05:10:13.069Z,37.40
2023-04-21T05:11:45.979Z,43.25
2023-04-21T05:13:19.313Z,43.28
2023-04-21T05:16:26.486Z,47.63
2023-04-21T05:17:59.508Z,51.30
2023-04-21T05:19:32.521Z,48.67
2023-04-21T05:21:05.679Z,44.75
2023-04-21T05:22:39.104Z,43.85
2023-04-21T05:25:45.234Z,41.85
2023-04-21T05:28:51.065Z,38.28
2023-04-21T05:30:24.065Z,40.53
2023-04-21T05:31:58.468Z,38.55
2023-04-21T05:33:32.223Z,35.88
2023-04-21T05:35:05.745Z,32.83
2023-04-21T05:36:38.800Z,34.75
2023-04-21T05:38:11.725Z,37.38
2023-04-21T05:39:44.864Z,35.83
2023-04-21T05:41:17.985Z,33.05
2023-04-21T05:42:50.935Z,34.25
2023-04-21T05:44:25.301Z,33.38
2023-04-21T05:45:58.291Z,35.22
2023-04-21T05:47:32.759Z,32.53
2023-04-21T05:49:05.802Z,33.40
2023-04-21T05:50:38.771Z,36.50
2023-04-21T05:52:11.747Z,32.10
2023-04-21T05:53:45.787Z,49.58
2023-04-21T05:55:21.543Z,52.03
2023-04-21T05:56:54.465Z,45.70
2023-04-21T05:58:27.444Z,42.92
2023-04-21T06:00:00.559Z,37.78
2023-04-21T06:01:33.662Z,40.17
2023-04-21T06:03:08.241Z,32.20
2023-04-21T06:04:41.503Z,36.03
2023-04-21T06:06:15.194Z,38.25
2023-04-21T06:07:48.222Z,36.70
2023-04-21T06:09:21.239Z,33.22
2023-04-21T06:10:54.588Z,31.20
2023-04-21T06:14:01.122Z,27.45
2023-04-21T06:15:34.065Z,27.23
2023-04-21T06:17:07.029Z,31.75
2023-04-21T06:18:41.343Z,28.48
2023-04-21T06:20:14.331Z,28.92
2023-04-21T06:21:47.445Z,28.45
2023-04-21T06:23:20.523Z,27.35
2023-04-21T06:24:54.321Z,26.50
2023-04-21T06:26:27.363Z,29.70
2023-04-21T06:28:00.321Z,34.03
2023-04-21T06:29:33.230Z,35.20
2023-04-21T06:31:08.781Z,36.70
2023-04-21T06:32:42.353Z,40.90
2023-04-21T06:34:17.081Z,31.58
2023-04-21T06:35:50.232Z,28.70
2023-04-21T06:37:23.254Z,30.50
2023-04-21T06:38:56.246Z,29.80
2023-04-21T06:40:29.151Z,31.73
2023-04-21T06:42:02.350Z,31.20
2023-04-21T06:43:35.364Z,27.65
2023-04-21T06:45:09.330Z,29.50
2023-04-21T06:46:42.654Z,33.30
2023-04-21T06:49:49.946Z,27.83
2023-04-21T06:51:22.840Z,29.75
2023-04-21T06:52:55.719Z,31.80
2023-04-21T06:54:28.727Z,28.13
2023-04-21T06:56:01.786Z,31.23
2023-04-21T06:57:34.686Z,28.95
2023-04-21T06:59:07.532Z,26.88
2023-04-21T07:00:40.694Z,28.73
2023-04-21T07:02:13.674Z,30.02
2023-04-21T07:03:46.759Z,24.52
2023-04-21T07:05:21.200Z,24.95
2023-04-21T07:06:54.095Z,26.02
2023-04-21T07:08:27.029Z,22.70
2023-04-21T07:09:59.958Z,25.25
2023-04-21T07:11:32.908Z,26.20
2023-04-21T07:13:08.768Z,25.95
2023-04-21T07:14:42.888Z,25.10
2023-04-21T07:16:15.862Z,24.05
2023-04-21T07:17:48.873Z,24.02
2023-04-21T07:19:21.911Z,23.98
2023-04-21T07:20:56.234Z,24.83
2023-04-21T07:22:29.146Z,25.30
2023-04-21T07:24:02.108Z,21.70
2023-04-21T07:25:35.117Z,23.25
2023-04-21T07:27:08.230Z,22.65
2023-04-21T07:28:41.694Z,22.63
2023-04-21T07:31:48.397Z,24.42
2023-04-21T07:33:21.395Z,22.08
2023-04-21T07:34:54.398Z,20.70
2023-04-21T07:36:31.110Z,23.98
2023-04-21T07:38:04.219Z,21.48
2023-04-21T07:39:37.170Z,25.50
2023-04-21T07:41:11.264Z,21.27
2023-04-21T07:42:44.215Z,24.30
2023-04-21T07:44:17.194Z,21.60
2023-04-21T07:45:52.051Z,23.42
2023-04-21T07:47:25.608Z,23.77
2023-04-21T07:48:58.990Z,23.00
2023-04-21T07:52:06.523Z,24.50
2023-04-21T07:53:39.542Z,23.48
2023-04-21T07:55:12.764Z,22.38
2023-04-21T07:56:45.705Z,21.02
2023-04-21T07:58:18.749Z,22.17
2023-04-21T07:59:51.741Z,19.88
2023-04-21T08:01:24.860Z,21.85
2023-04-21T08:02:58.196Z,20.83
2023-04-21T08:04:31.453Z,22.00
2023-04-21T08:07:39.437Z,19.25
2023-04-21T08:11:10.958Z,20.17
2023-04-21T08:12:44.050Z,18.98
2023-04-21T08:14:17.257Z,19.40
2023-04-21T08:17:23.949Z,17.17
2023-04-21T08:18:56.913Z,16.08
2023-04-21T08:20:30.175Z,19.15
2023-04-21T08:22:03.268Z,18.40
2023-04-21T08:23:37.690Z,17.48
2023-04-21T08:25:10.951Z,17.83
2023-04-21T08:26:44.936Z,16.70
2023-04-21T08:28:18.008Z,18.33
2023-04-21T08:29:51.636Z,14.63
2023-04-21T08:31:24.772Z,15.05
2023-04-21T08:32:57.947Z,15.98
2023-04-21T08:34:31.243Z,15.60
2023-04-21T08:36:12.136Z,15.25
2023-04-21T08:37:49.355Z,14.52
2023-04-21T08:39:24.683Z,14.77
2023-04-21T08:41:00.765Z,15.27
2023-04-21T08:42:34.288Z,14.75
2023-04-21T08:44:07.261Z,14.07
2023-04-21T08:45:42.273Z,13.10
2023-04-21T08:47:16.708Z,15.93
2023-04-21T08:48:49.753Z,13.63
2023-04-21T08:50:27.797Z,17.02
2023-04-21T08:52:01.901Z,16.13
2023-04-21T08:53:35.030Z,14.98
2023-04-21T08:55:10.997Z,17.73
2023-04-21T08:56:43.982Z,16.30
2023-04-21T08:58:16.965Z,14.52
2023-04-21T08:59:49.916Z,17.40
2023-04-21T09:01:23.019Z,14.52
2023-04-21T09:03:01.412Z,15.85
2023-04-21T09:04:35.162Z,16.13
2023-04-21T09:06:12.703Z,13.93
2023-04-21T09:07:45.833Z,13.00
2023-04-21T09:09:19.085Z,14.20
2023-04-21T09:12:30.133Z,13.40
2023-04-21T09:14:03.115Z,15.93
2023-04-21T09:15:40.933Z,13.85
2023-04-21T09:17:16.186Z,13.65
2023-04-21T09:18:49.279Z,17.10
2023-04-21T09:20:23.922Z,13.65
2023-04-21T09:21:57.261Z,13.32
2023-04-21T09:25:03.530Z,12.82
2023-04-21T09:26:38.128Z,12.00
2023-04-21T09:28:12.345Z,14.30
2023-04-21T09:29:49.407Z,12.30
2023-04-21T09:31:25.733Z,11.57
2023-04-21T09:33:00.103Z,13.43
2023-04-21T09:34:35.437Z,13.80
2023-04-21T09:36:08.907Z,13.43
2023-04-21T09:37:45.056Z,11.90
2023-04-21T09:40:59.921Z,14.93
2023-04-21T09:42:39.151Z,15.65
2023-04-21T09:44:13.377Z,13.85
2023-04-21T09:45:47.268Z,13.68
2023-04-21T09:47:21.159Z,13.90
2023-04-21T09:48:55.733Z,13.18
2023-04-21T09:52:18.680Z,13.30
2023-04-21T09:53:55.159Z,10.82
2023-04-21T09:55:30.881Z,12.30
2023-04-21T09:57:05.781Z,13.80
2023-04-21T09:58:45.118Z,13.55
2023-04-21T10:00:22.371Z,14.68
2023-04-21T10:01:56.289Z,10.32
2023-04-21T10:03:30.122Z,11.93
2023-04-21T10:05:04.797Z,11.43
2023-04-21T10:06:37.898Z,13.02
2023-04-21T10:08:11.970Z,11.77
2023-04-21T10:09:49.948Z,12.35
2023-04-21T10:11:24.098Z,10.82
2023-04-21T10:12:57.079Z,10.27
2023-04-21T10:14:31.415Z,14.48
2023-04-21T10:16:07.621Z,12.05
2023-04-21T10:17:40.803Z,12.48
2023-04-21T10:19:25.746Z,15.27
2023-04-21T10:20:59.793Z,13.32
2023-04-21T10:22:34.028Z,11.55
2023-04-21T10:24:08.288Z,9.73
2023-04-21T10:25:41.392Z,10.45
2023-04-21T10:27:32.480Z,13.88
2023-04-21T10:29:06.917Z,12.10
2023-04-21T10:30:41.428Z,11.90
2023-04-21T10:32:32.863Z,11.82
2023-04-21T10:34:21.092Z,11.40
2023-04-21T10:36:02.084Z,13.02
2023-04-21T10:37:35.344Z,13.25
2023-04-21T10:40:44.344Z,10.38
2023-04-21T10:42:25.509Z,11.02
2023-04-21T10:43:59.651Z,10.57
2023-04-21T10:45:33.628Z,12.25
2023-04-21T10:47:09.220Z,10.73
2023-04-21T10:48:42.284Z,11.73
2023-04-21T10:50:17.407Z,11.32
2023-04-21T10:52:09.233Z,11.27
2023-04-21T10:53:45.743Z,8.90
2023-04-21T10:55:18.790Z,10.18
2023-04-21T10:56:53.866Z,13.27
2023-04-21T10:58:27.089Z,16.48
2023-04-21T11:01:33.015Z,12.32
2023-04-21T11:03:09.032Z,10.55
2023-04-21T11:04:46.063Z,8.95
2023-04-21T11:06:19.711Z,9.85
2023-04-21T11:07:52.675Z,9.15
2023-04-21T11:09:25.628Z,9.23
2023-04-21T11:10:58.680Z,12.55
2023-04-21T11:12:33.301Z,9.40
2023-04-21T11:14:06.527Z,9.82
2023-04-21T11:17:13.842Z,11.10
2023-04-21T11:18:49.118Z,12.23
2023-04-21T11:20:22.498Z,11.75
2023-04-21T11:21:56.150Z,10.90
2023-04-21T11:23:29.217Z,9.95
2023-04-21T11:25:03.079Z,11.35
2023-04-21T11:26:38.322Z,9.20
2023-04-21T11:28:11.280Z,11.75
2023-04-21T11:29:45.964Z,14.80
2023-04-21T11:31:19.205Z,11.90
2023-04-21T11:32:55.973Z,9.90
2023-04-21T11:34:30.949Z,10.02
2023-04-21T11:36:05.976Z,10.20
2023-04-21T11:37:39.672Z,9.82
2023-04-21T11:39:15.889Z,8.82
2023-04-21T11:40:49.360Z,11.23
2023-04-21T11:42:23.000Z,9.57
2023-04-21T11:43:55.930Z,9.85
2023-04-21T11:45:30.462Z,7.95
2023-04-21T11:47:14.195Z,8.98
2023-04-21T11:50:33.412Z,9.13
2023-04-21T11:52:06.972Z,10.18
2023-04-21T11:53:40.109Z,10.27
2023-04-21T11:55:17.952Z,8.98
2023-04-21T11:56:52.057Z,9.70
2023-04-21T11:58:24.992Z,8.55
2023-04-21T12:00:00.623Z,12.65
2023-04-21T12:01:33.578Z,9.93
2023-04-21T12:03:11.188Z,9.10
2023-04-21T12:04:58.619Z,11.25
2023-04-21T12:06:33.053Z,10.10
2023-04-21T12:08:06.445Z,8.43
2023-04-21T12:09:39.620Z,9.15
2023-04-21T12:11:12.617Z,9.90
2023-04-21T12:12:46.185Z,10.07
2023-04-21T12:14:20.602Z,8.30
2023-04-21T12:15:53.694Z,11.25
2023-04-21T12:17:26.691Z,10.70
2023-04-21T12:19:00.071Z,8.25
2023-04-21T12:20:33.415Z,8.45
2023-04-21T12:22:10.705Z,8.00
2023-04-21T12:23:44.670Z,9.02
2023-04-21T12:25:18.185Z,10.45
2023-04-21T12:26:51.542Z,8.07
2023-04-21T12:28:24.658Z,10.30
2023-04-21T12:29:57.848Z,8.73
2023-04-21T12:33:04.010Z,7.65
2023-04-21T12:34:37.303Z,8.90
2023-04-21T12:36:10.529Z,7.63
2023-04-21T12:39:19.560Z,8.00
2023-04-21T12:40:52.673Z,8.82
2023-04-21T12:42:25.668Z,7.25
2023-04-21T12:43:58.637Z,8.65
2023-04-21T12:45:33.154Z,9.27
2023-04-21T12:47:07.151Z,7.95
2023-04-21T12:48:40.266Z,8.40
2023-04-21T12:50:14.290Z,7.90
2023-04-21T12:51:47.614Z,6.40
2023-04-21T12:53:22.016Z,8.25
2023-04-21T12:54:55.006Z,6.95
2023-04-21T12:56:28.490Z,7.30
2023-04-21T12:58:01.584Z,8.32
2023-04-21T12:59:34.653Z,9.10
2023-04-21T13:01:07.746Z,8.85
2023-04-21T13:04:14.150Z,7.55
2023-04-21T13:05:47.453Z,6.35
2023-04-21T13:07:22.148Z,5.82
2023-04-21T13:08:56.847Z,6.72
2023-04-21T13:10:30.262Z,6.90
2023-04-21T13:12:03.348Z,6.25
2023-04-21T13:13:36.517Z,7.53
2023-04-21T13:16:42.844Z,5.65
2023-04-21T13:18:15.844Z,7.10
2023-04-21T13:19:49.289Z,5.75
2023-04-21T13:21:22.345Z,6.03
2023-04-21T13:22:55.266Z,6.72
2023-04-21T13:24:29.543Z,8.15
2023-04-21T13:26:02.517Z,7.55
2023-04-21T13:27:38.278Z,7.63
2023-04-21T13:29:11.289Z,8.10
2023-04-21T13:30:44.635Z,6.75
2023-04-21T13:32:17.865Z,8.25
2023-04-21T13:35:27.283Z,6.35
2023-04-21T13:37:00.566Z,6.40
2023-04-21T13:38:33.768Z,7.45
2023-04-21T13:41:47.345Z,6.82
2023-04-21T13:44:53.574Z,6.20
2023-04-21T13:46:26.844Z,6.22
2023-04-21T13:48:00.081Z,5.43
2023-04-21T13:49:33.467Z,5.32
2023-04-21T13:51:06.893Z,21.63
2023-04-21T13:54:12.684Z,5.97
2023-04-21T13:55:47.592Z,9.77
2023-04-21T13:57:20.981Z,6.03
2023-04-21T13:58:55.111Z,7.93
2023-04-21T14:00:28.501Z,8.63
2023-04-21T14:02:02.011Z,6.40
2023-04-21T14:03:35.228Z,8.43
2023-04-21T14:05:09.089Z,8.27
2023-04-21T14:06:42.183Z,7.57
2023-04-21T14:08:15.263Z,7.03
2023-04-21T14:11:22.670Z,5.93
2023-04-21T14:12:55.624Z,5.65
2023-04-21T14:14:38.682Z,6.50
2023-04-21T14:17:45.605Z,11.30
2023-04-21T14:19:18.690Z,5.07
2023-04-21T14:20:51.779Z,6.68
2023-04-21T14:23:57.554Z,3.97
2023-04-21T14:25:30.730Z,3.95
2023-04-21T14:27:05.742Z,6.25
2023-04-21T14:28:39.044Z,6.13
2023-04-21T14:30:13.197Z,4.68
2023-04-21T14:31:46.265Z,4.00
2023-04-21T14:34:53.430Z,7.03
2023-04-21T14:36:28.165Z,8.65
2023-04-21T14:38:01.315Z,5.85
2023-04-21T14:41:07.766Z,5.97
2023-04-21T14:44:16.144Z,4.72
2023-04-21T14:45:49.728Z,4.50
2023-04-21T14:47:23.422Z,5.57
2023-04-21T14:48:57.504Z,5.18
2023-04-21T14:50:30.729Z,4.68
2023-04-21T14:53:37.007Z,4.07
2023-04-21T14:55:13.983Z,4.15
2023-04-21T14:56:46.922Z,5.90
2023-04-21T14:58:21.297Z,5.25
2023-04-21T14:59:54.735Z,3.55
2023-04-21T15:01:27.814Z,4.90
2023-04-21T15:04:34.318Z,4.65
2023-04-21T15:06:07.774Z,4.75
2023-04-21T15:07:40.808Z,4.55
2023-04-21T15:09:14.176Z,4.95
2023-04-21T15:10:47.701Z,6.50
2023-04-21T15:12:21.067Z,4.82
2023-04-21T15:13:55.691Z,6.30
2023-04-21T15:15:28.739Z,6.30
2023-04-21T15:17:02.169Z,6.32
2023-04-21T15:18:35.266Z,5.38
2023-04-21T15:20:11.387Z,8.45
2023-04-21T15:21:44.395Z,8.95
2023-04-21T15:23:17.521Z,6.53
2023-04-21T15:26:26.773Z,7.40
2023-04-21T15:27:59.695Z,5.53
2023-04-21T15:29:34.251Z,5.63
2023-04-21T15:31:09.931Z,4.85
2023-04-21T15:32:43.409Z,6.88
2023-04-21T15:35:49.263Z,5.30
2023-04-21T15:37:25.492Z,5.22
2023-04-21T15:38:59.040Z,5.47
2023-04-21T15:42:05.870Z,4.25
2023-04-21T15:43:38.861Z,6.55
2023-04-21T15:45:13.362Z,6.03
2023-04-21T15:46:46.458Z,6.30
2023-04-21T15:51:27.063Z,6.22
2023-04-21T15:53:00.181Z,5.13
2023-04-21T15:54:35.001Z,5.28
2023-04-21T15:56:11.322Z,5.70
2023-04-21T15:57:44.320Z,5.15
2023-04-21T15:59:17.431Z,7.50
2023-04-21T16:02:24.993Z,4.97
2023-04-21T16:03:58.559Z,5.95
2023-04-21T16:05:31.694Z,11.27
2023-04-21T16:08:37.820Z,6.75
2023-04-21T16:10:12.022Z,4.43
2023-04-21T16:11:45.016Z,6.10
2023-04-21T16:13:18.731Z,6.00
2023-04-21T16:14:57.453Z,3.83
2023-04-21T16:16:33.897Z,5.05
2023-04-21T16:18:08.391Z,4.60
2023-04-21T16:19:42.453Z,4.97
2023-04-21T16:21:15.605Z,4.85
2023-04-21T16:24:22.472Z,4.82
2023-04-21T16:25:54.875Z,5.13
2023-04-21T16:27:28.093Z,6.20
2023-04-21T16:29:01.410Z,4.38
2023-04-21T16:30:35.966Z,3.97
2023-04-21T16:32:10.428Z,4.53
2023-04-21T16:33:43.573Z,3.97
2023-04-21T16:35:16.760Z,5.95
2023-04-21T16:36:49.848Z,3.92
2023-04-21T16:38:25.911Z,4.65
2023-04-21T16:39:58.957Z,6.40
2023-04-21T16:41:31.940Z,6.85
2023-04-21T16:43:04.984Z,4.90
2023-04-21T16:46:11.392Z,5.07
2023-04-21T16:49:19.071Z,5.25
2023-04-21T16:52:27.360Z,6.30
2023-04-21T16:54:00.478Z,5.18
2023-04-21T16:57:06.768Z,4.55
2023-04-21T16:58:39.712Z,5.50
2023-04-21T17:00:13.384Z,5.95
2023-04-21T17:01:46.374Z,5.15
2023-04-21T17:03:20.883Z,9.50
2023-04-21T17:04:54.117Z,3.80
2023-04-21T17:06:27.092Z,4.53
2023-04-21T17:08:00.182Z,4.28
2023-04-21T17:11:06.366Z,4.18
2023-04-21T17:12:39.574Z,5.10
2023-04-21T17:15:45.737Z,4.80
2023-04-21T17:18:52.895Z,3.67
2023-04-21T17:20:26.146Z,4.80
2023-04-21T17:23:32.159Z,4.10
2023-04-21T17:26:38.369Z,6.00
2023-04-21T17:28:11.511Z,5.38
2023-04-21T17:31:17.586Z,5.85
2023-04-21T17:34:43.324Z,5.72
2023-04-21T17:36:16.933Z,5.45
2023-04-21T17:37:50.092Z,5.95
2023-04-21T17:39:23.066Z,6.97
2023-04-21T17:40:56.081Z,5.88
2023-04-21T17:42:29.381Z,4.22
2023-04-21T17:44:02.293Z,6.55
2023-04-21T17:45:35.213Z,5.43
2023-04-21T17:47:08.916Z,7.65
2023-04-21T17:48:42.005Z,6.25
2023-04-21T17:50:16.279Z,5.90
2023-04-21T17:51:49.170Z,5.40
2023-04-21T17:53:22.250Z,7.47
2023-04-21T17:54:55.324Z,7.03
2023-04-21T17:56:28.708Z,8.23
2023-04-21T17:58:01.739Z,5.95
2023-04-21T17:59:34.834Z,5.40
2023-04-21T18:01:08.271Z,5.88
2023-04-21T18:02:41.406Z,5.75
2023-04-21T18:05:51.267Z,7.03
2023-04-21T18:07:24.308Z,5.90
2023-04-21T18:08:57.330Z,5.57
2023-04-21T18:10:30.465Z,7.45
2023-04-21T18:12:03.977Z,6.85
2023-04-21T18:13:37.209Z,7.55
2023-04-21T18:15:11.549Z,6.60
2023-04-21T18:16:44.447Z,6.32
2023-04-21T18:18:17.507Z,5.95
2023-04-21T18:19:50.545Z,4.43
2023-04-21T18:21:24.955Z,5.68
2023-04-21T18:22:58.235Z,7.45
2023-04-21T18:26:03.949Z,7.18
2023-04-21T18:27:36.935Z,6.45
2023-04-21T18:29:09.868Z,6.40
2023-04-21T18:30:43.026Z,6.80
2023-04-21T18:32:15.991Z,6.72
2023-04-21T18:33:49.120Z,8.38
2023-04-21T18:35:22.204Z,6.57
2023-04-21T18:36:56.457Z,8.23
2023-04-21T18:38:29.513Z,6.47
2023-04-21T18:40:02.470Z,6.70
2023-04-21T18:41:35.510Z,6.82
2023-04-21T18:43:09.622Z,5.43
2023-04-21T18:44:42.946Z,8.55
2023-04-21T18:47:49.588Z,6.20
2023-04-21T18:49:22.555Z,6.53
2023-04-21T18:50:55.602Z,9.45
2023-04-21T18:52:29.977Z,6.32
2023-04-21T18:54:05.642Z,5.70
2023-04-21T18:55:38.657Z,8.15
2023-04-21T18:57:12.730Z,8.57
2023-04-21T18:58:45.912Z,8.20
2023-04-21T19:00:19.112Z,7.00
2023-04-21T19:03:26.254Z,7.53
2023-04-21T19:04:59.620Z,8.02
2023-04-21T19:08:09.037Z,7.78
2023-04-21T19:09:42.081Z,8.30
2023-04-21T19:11:15.746Z,9.65
2023-04-21T19:12:48.882Z,13.63
2023-04-21T19:14:22.384Z,8.82
2023-04-21T19:16:05.471Z,8.88
2023-04-21T19:17:39.838Z,10.25
2023-04-21T19:19:12.803Z,11.88
2023-04-21T19:20:49.889Z,10.40
2023-04-21T19:22:22.814Z,12.50
2023-04-21T19:24:04.336Z,9.07
2023-04-21T19:25:42.169Z,10.75
2023-04-21T19:27:24.670Z,11.40
2023-04-21T19:28:58.273Z,11.05
2023-04-21T19:30:31.420Z,10.55
2023-04-21T19:32:04.499Z,10.60
2023-04-21T19:33:37.555Z,8.73
2023-04-21T19:35:11.069Z,10.02
2023-04-21T19:36:43.985Z,9.40
2023-04-21T19:38:16.955Z,7.57
2023-04-21T19:39:51.265Z,12.00
2023-04-21T19:41:24.425Z,8.50
2023-04-21T19:42:58.546Z,9.05
2023-04-21T19:44:31.903Z,10.18
2023-04-21T19:47:38.046Z,9.82
2023-04-21T19:49:13.005Z,8.95
2023-04-21T19:50:46.387Z,10.68
2023-04-21T19:53:59.654Z,9.55
2023-04-21T19:55:37.902Z,9.63
2023-04-21T19:57:11.143Z,10.68
2023-04-21T20:00:17.861Z,10.70
2023-04-21T20:01:50.891Z,13.00
2023-04-21T20:03:24.092Z,13.02
2023-04-21T20:06:30.532Z,10.60
2023-04-21T20:09:36.602Z,12.02
2023-04-21T20:11:11.101Z,12.07
2023-04-21T20:12:44.015Z,12.23
2023-04-21T20:14:18.112Z,10.95
2023-04-21T20:15:51.101Z,10.60
2023-04-21T20:17:24.191Z,11.95
2023-04-21T20:18:57.218Z,13.20
2023-04-21T20:20:30.771Z,11.13
2023-04-21T20:22:03.883Z,10.93
2023-04-21T20:23:37.002Z,13.20
2023-04-21T20:25:10.917Z,10.73
2023-04-21T20:26:45.268Z,13.13
2023-04-21T20:28:18.339Z,12.85
2023-04-21T20:29:51.305Z,12.48
2023-04-21T20:31:25.473Z,14.15
2023-04-21T20:32:58.629Z,16.88
2023-04-21T20:34:31.636Z,14.23
2023-04-21T20:36:07.360Z,12.98
2023-04-21T20:37:40.493Z,12.52
2023-04-21T20:39:14.290Z,11.90
2023-04-21T20:40:50.129Z,13.65
2023-04-21T20:42:25.035Z,12.82
2023-04-21T20:43:58.021Z,14.52
2023-04-21T20:45:31.509Z,13.85
2023-04-21T20:47:04.543Z,13.75
2023-04-21T20:48:37.622Z,13.82
2023-04-21T20:50:11.157Z,14.07
2023-04-21T20:51:44.233Z,14.13
2023-04-21T20:53:17.254Z,12.90
2023-04-21T20:54:50.193Z,12.75
2023-04-21T20:56:23.141Z,11.88
2023-04-21T20:57:57.462Z,12.65
2023-04-21T20:59:30.430Z,13.15
2023-04-21T21:01:03.429Z,13.75
2023-04-21T21:02:36.570Z,12.30
2023-04-21T21:05:43.114Z,15.43
2023-04-21T21:07:16.115Z,15.18
2023-04-21T21:08:49.430Z,15.73
2023-04-21T21:11:55.238Z,12.38
2023-04-21T21:13:29.508Z,12.52
2023-04-21T21:15:02.699Z,18.00
2023-04-21T21:16:35.938Z,10.95
2023-04-21T21:19:41.853Z,15.23
2023-04-21T21:21:14.853Z,12.65
2023-04-21T21:22:47.745Z,12.90
2023-04-21T21:24:20.739Z,12.90
2023-04-21T21:25:53.698Z,12.15
2023-04-21T21:27:26.668Z,13.00
2023-04-21T21:29:01.001Z,12.40
2023-04-21T21:30:33.972Z,13.40
2023-04-21T21:32:06.076Z,13.35
2023-04-21T21:33:39.012Z,11.55
2023-04-21T21:35:12.163Z,14.27
2023-04-21T21:36:45.350Z,12.07
2023-04-21T21:38:18.323Z,10.82
2023-04-21T21:39:52.557Z,13.60
2023-04-21T21:41:25.704Z,9.73
2023-04-21T21:42:58.682Z,11.23
2023-04-21T21:44:33.079Z,13.77
2023-04-21T21:46:06.798Z,13.45
2023-04-21T21:47:43.976Z,13.38
2023-04-21T21:49:18.640Z,12.77
2023-04-21T21:50:51.857Z,13.90
2023-04-21T21:52:24.846Z,13.35
2023-04-21T21:53:57.824Z,12.70
2023-04-21T21:55:30.754Z,12.40
2023-04-21T21:57:03.764Z,11.23
2023-04-21T21:58:36.841Z,11.77
2023-04-21T22:00:14.154Z,10.48
2023-04-21T22:01:47.215Z,11.38
2023-04-21T22:03:19.402Z,10.65
2023-04-21T22:04:52.561Z,9.90
2023-04-21T22:06:26.722Z,11.50
2023-04-21T22:07:59.710Z,9.80
2023-04-21T22:09:32.632Z,14.45
2023-04-21T22:11:05.936Z,15.38
2023-04-21T22:14:21.625Z,12.55
2023-04-21T22:15:57.468Z,12.80
2023-04-21T22:17:29.833Z,12.80
2023-04-21T22:19:03.507Z,11.68
2023-04-21T22:20:36.958Z,12.13
2023-04-21T22:22:10.519Z,10.82
2023-04-21T22:23:43.517Z,11.90
2023-04-21T22:25:16.698Z,13.77
2023-04-21T22:26:49.655Z,10.38
2023-04-21T22:28:21.698Z,12.00